sensor_id;sensor_type;location;lat;lon;timestamp;temperature;humidity
37158;DHT22;23050;51.776;22.638;2024-03-17T00:00:03;8.50;99.90
37158;DHT22;23050;51.776;22.638;2024-03-17T00:02:30;8.40;99.90
37158;DHT22;23050;51.776;22.638;2024-03-17T00:04:55;8.40;99.90
37158;DHT22;23050;51.776;22.638;2024-03-17T00:07:21;8.40;99.90
37158;DHT22;23050;51.776;22.638;2024-03-17T00:09:48;8.40;99.90
37158;DHT22;23050;51.776;22.638;2024-03-17T00:12:13;8.50;99.90
37158;DHT22;23050;51.776;22.638;2024-03-17T00:14:39;8.60;99.90
37158;DHT22;23050;51.776;22.638;2024-03-17T00:17:05;8.60;99.90
37158;DHT22;23050;51.776;22.638;2024-03-17T00:19:30;8.70;99.90
37158;DHT22;23050;51.776;22.638;2024-03-17T00:21:56;8.80;99.90
37158;DHT22;23050;51.776;22.638;2024-03-17T00:24:22;8.80;99.90
37158;DHT22;23050;51.776;22.638;2024-03-17T00:26:47;8.80;99.90
37158;DHT22;23050;51.776;22.638;2024-03-17T00:29:14;8.90;99.90
37158;DHT22;23050;51.776;22.638;2024-03-17T00:31:41;8.90;99.90
37158;DHT22;23050;51.776;22.638;2024-03-17T00:34:06;9.00;99.90
37158;DHT22;23050;51.776;22.638;2024-03-17T00:36:32;9.10;99.90
37158;DHT22;23050;51.776;22.638;2024-03-17T00:38:58;9.10;99.90
37158;DHT22;23050;51.776;22.638;2024-03-17T00:41:26;9.10;99.90
37158;DHT22;23050;51.776;22.638;2024-03-17T00:43:54;9.10;99.90
37158;DHT22;23050;51.776;22.638;2024-03-17T00:46:35;9.10;99.90
37158;DHT22;23050;51.776;22.638;2024-03-17T00:49:16;9.10;99.90
37158;DHT22;23050;51.776;22.638;2024-03-17T00:51:43;9.10;99.90
37158;DHT22;23050;51.776;22.638;2024-03-17T00:54:08;9.20;99.90
37158;DHT22;23050;51.776;22.638;2024-03-17T00:56:34;9.20;99.90
37158;DHT22;23050;51.776;22.638;2024-03-17T00:59:00;9.10;99.90
37158;DHT22;23050;51.776;22.638;2024-03-17T01:01:25;9.20;99.90
37158;DHT22;23050;51.776;22.638;2024-03-17T01:03:51;9.20;99.90
37158;DHT22;23050;51.776;22.638;2024-03-17T01:06:17;9.10;99.90
37158;DHT22;23050;51.776;22.638;2024-03-17T01:08:43;9.10;99.90
37158;DHT22;23050;51.776;22.638;2024-03-17T01:11:14;9.20;99.90
37158;DHT22;23050;51.776;22.638;2024-03-17T01:13:40;9.10;99.90
37158;DHT22;23050;51.776;22.638;2024-03-17T01:16:07;9.10;99.90
37158;DHT22;23050;51.776;22.638;2024-03-17T01:18:32;9.10;99.90
37158;DHT22;23050;51.776;22.638;2024-03-17T01:20:59;9.10;99.90
37158;DHT22;23050;51.776;22.638;2024-03-17T01:23:25;9.10;99.90
37158;DHT22;23050;51.776;22.638;2024-03-17T01:25:50;9.10;99.90
37158;DHT22;23050;51.776;22.638;2024-03-17T01:28:17;9.10;99.90
37158;DHT22;23050;51.776;22.638;2024-03-17T01:30:46;9.10;99.90
37158;DHT22;23050;51.776;22.638;2024-03-17T01:33:12;9.00;99.90
37158;DHT22;23050;51.776;22.638;2024-03-17T01:35:38;8.90;99.90
37158;DHT22;23050;51.776;22.638;2024-03-17T01:38:04;8.50;99.90
37158;DHT22;23050;51.776;22.638;2024-03-17T01:40:29;8.20;99.90
37158;DHT22;23050;51.776;22.638;2024-03-17T01:42:55;8.00;99.90
37158;DHT22;23050;51.776;22.638;2024-03-17T01:45:34;7.60;99.90
37158;DHT22;23050;51.776;22.638;2024-03-17T01:48:02;7.40;99.90
37158;DHT22;23050;51.776;22.638;2024-03-17T01:50:37;7.30;99.90
37158;DHT22;23050;51.776;22.638;2024-03-17T01:53:05;7.10;99.90
37158;DHT22;23050;51.776;22.638;2024-03-17T01:55:36;6.90;99.90
37158;DHT22;23050;51.776;22.638;2024-03-17T01:58:03;6.70;99.90
37158;DHT22;23050;51.776;22.638;2024-03-17T02:00:29;6.60;99.90
37158;DHT22;23050;51.776;22.638;2024-03-17T02:02:57;6.50;99.90
37158;DHT22;23050;51.776;22.638;2024-03-17T02:05:22;6.40;99.90
37158;DHT22;23050;51.776;22.638;2024-03-17T02:07:48;6.30;99.90
37158;DHT22;23050;51.776;22.638;2024-03-17T02:10:15;6.30;99.90
37158;DHT22;23050;51.776;22.638;2024-03-17T02:12:41;6.20;99.90
37158;DHT22;23050;51.776;22.638;2024-03-17T02:15:07;6.20;99.90
37158;DHT22;23050;51.776;22.638;2024-03-17T02:17:33;6.10;99.90
37158;DHT22;23050;51.776;22.638;2024-03-17T02:19:59;6.10;99.90
37158;DHT22;23050;51.776;22.638;2024-03-17T02:22:26;6.10;99.90
37158;DHT22;23050;51.776;22.638;2024-03-17T02:24:53;6.10;99.90
37158;DHT22;23050;51.776;22.638;2024-03-17T02:27:19;6.10;99.90
37158;DHT22;23050;51.776;22.638;2024-03-17T02:29:44;6.00;99.90
37158;DHT22;23050;51.776;22.638;2024-03-17T02:32:10;6.00;99.90
37158;DHT22;23050;51.776;22.638;2024-03-17T02:34:37;6.00;99.90
37158;DHT22;23050;51.776;22.638;2024-03-17T02:37:04;6.00;99.90
37158;DHT22;23050;51.776;22.638;2024-03-17T02:39:33;6.00;99.90
37158;DHT22;23050;51.776;22.638;2024-03-17T02:42:03;6.00;99.90
37158;DHT22;23050;51.776;22.638;2024-03-17T02:44:31;5.90;99.90
37158;DHT22;23050;51.776;22.638;2024-03-17T02:46:58;6.00;99.90
37158;DHT22;23050;51.776;22.638;2024-03-17T02:49:25;5.90;99.90
37158;DHT22;23050;51.776;22.638;2024-03-17T02:51:55;6.00;99.90
37158;DHT22;23050;51.776;22.638;2024-03-17T02:54:22;6.00;99.90
37158;DHT22;23050;51.776;22.638;2024-03-17T02:56:50;5.90;99.90
37158;DHT22;23050;51.776;22.638;2024-03-17T02:59:16;5.90;99.90
37158;DHT22;23050;51.776;22.638;2024-03-17T03:01:42;5.90;99.90
37158;DHT22;23050;51.776;22.638;2024-03-17T03:04:08;5.90;99.90
37158;DHT22;23050;51.776;22.638;2024-03-17T03:06:34;5.90;99.90
37158;DHT22;23050;51.776;22.638;2024-03-17T03:09:00;5.90;99.90
37158;DHT22;23050;51.776;22.638;2024-03-17T03:11:25;5.90;99.90
37158;DHT22;23050;51.776;22.638;2024-03-17T03:13:51;5.90;99.90
37158;DHT22;23050;51.776;22.638;2024-03-17T03:16:17;5.80;99.90
37158;DHT22;23050;51.776;22.638;2024-03-17T03:18:44;5.80;99.90
37158;DHT22;23050;51.776;22.638;2024-03-17T03:21:11;5.80;99.90
37158;DHT22;23050;51.776;22.638;2024-03-17T03:23:37;5.80;99.90
37158;DHT22;23050;51.776;22.638;2024-03-17T03:26:03;5.80;99.90
37158;DHT22;23050;51.776;22.638;2024-03-17T03:28:33;5.80;99.90
37158;DHT22;23050;51.776;22.638;2024-03-17T03:31:02;5.80;99.90
37158;DHT22;23050;51.776;22.638;2024-03-17T03:33:28;5.70;99.90
37158;DHT22;23050;51.776;22.638;2024-03-17T03:35:54;5.70;99.90
37158;DHT22;23050;51.776;22.638;2024-03-17T03:38:21;5.70;99.90
37158;DHT22;23050;51.776;22.638;2024-03-17T03:40:47;5.70;99.90
37158;DHT22;23050;51.776;22.638;2024-03-17T03:43:13;5.70;99.90
37158;DHT22;23050;51.776;22.638;2024-03-17T03:45:39;5.70;99.90
37158;DHT22;23050;51.776;22.638;2024-03-17T03:48:06;5.70;99.90
37158;DHT22;23050;51.776;22.638;2024-03-17T03:50:33;5.60;99.90
37158;DHT22;23050;51.776;22.638;2024-03-17T03:52:59;5.60;99.90
37158;DHT22;23050;51.776;22.638;2024-03-17T03:55:25;5.60;99.90
37158;DHT22;23050;51.776;22.638;2024-03-17T03:57:50;5.60;99.90
37158;DHT22;23050;51.776;22.638;2024-03-17T04:00:21;5.50;99.90
37158;DHT22;23050;51.776;22.638;2024-03-17T04:02:53;5.50;99.90
37158;DHT22;23050;51.776;22.638;2024-03-17T04:05:19;5.50;99.90
37158;DHT22;23050;51.776;22.638;2024-03-17T04:07:46;5.50;99.90
37158;DHT22;23050;51.776;22.638;2024-03-17T04:10:13;5.50;99.90
37158;DHT22;23050;51.776;22.638;2024-03-17T04:12:39;5.40;99.90
37158;DHT22;23050;51.776;22.638;2024-03-17T04:15:04;5.40;99.90
37158;DHT22;23050;51.776;22.638;2024-03-17T04:17:32;5.40;99.90
37158;DHT22;23050;51.776;22.638;2024-03-17T04:19:58;5.40;99.90
37158;DHT22;23050;51.776;22.638;2024-03-17T04:22:24;5.30;99.90
37158;DHT22;23050;51.776;22.638;2024-03-17T04:24:50;5.30;99.90
37158;DHT22;23050;51.776;22.638;2024-03-17T04:27:20;5.30;99.90
37158;DHT22;23050;51.776;22.638;2024-03-17T04:29:50;5.30;99.90
37158;DHT22;23050;51.776;22.638;2024-03-17T04:32:15;5.30;99.90
37158;DHT22;23050;51.776;22.638;2024-03-17T04:34:41;5.20;99.90
37158;DHT22;23050;51.776;22.638;2024-03-17T04:37:09;5.20;99.90
37158;DHT22;23050;51.776;22.638;2024-03-17T04:39:38;5.10;99.90
37158;DHT22;23050;51.776;22.638;2024-03-17T04:42:05;5.10;99.90
37158;DHT22;23050;51.776;22.638;2024-03-17T04:44:31;5.10;99.90
37158;DHT22;23050;51.776;22.638;2024-03-17T04:46:58;5.10;99.90
37158;DHT22;23050;51.776;22.638;2024-03-17T04:49:23;5.00;99.90
37158;DHT22;23050;51.776;22.638;2024-03-17T04:51:49;4.90;99.90
37158;DHT22;23050;51.776;22.638;2024-03-17T04:54:15;4.90;99.90
37158;DHT22;23050;51.776;22.638;2024-03-17T04:56:41;4.80;99.90
37158;DHT22;23050;51.776;22.638;2024-03-17T04:59:06;4.70;99.90
37158;DHT22;23050;51.776;22.638;2024-03-17T05:01:32;4.60;99.90
37158;DHT22;23050;51.776;22.638;2024-03-17T05:04:02;4.60;99.90
37158;DHT22;23050;51.776;22.638;2024-03-17T05:06:28;4.50;99.90
37158;DHT22;23050;51.776;22.638;2024-03-17T05:08:54;4.50;99.90
37158;DHT22;23050;51.776;22.638;2024-03-17T05:11:20;4.50;99.90
37158;DHT22;23050;51.776;22.638;2024-03-17T05:13:45;4.40;99.90
37158;DHT22;23050;51.776;22.638;2024-03-17T05:16:11;4.40;99.90
37158;DHT22;23050;51.776;22.638;2024-03-17T05:18:37;4.40;99.90
37158;DHT22;23050;51.776;22.638;2024-03-17T05:21:07;4.40;99.90
37158;DHT22;23050;51.776;22.638;2024-03-17T05:23:35;4.30;99.90
37158;DHT22;23050;51.776;22.638;2024-03-17T05:26:02;4.40;99.90
37158;DHT22;23050;51.776;22.638;2024-03-17T05:28:30;4.60;99.90
37158;DHT22;23050;51.776;22.638;2024-03-17T05:30:56;5.00;99.90
37158;DHT22;23050;51.776;22.638;2024-03-17T05:33:23;5.50;99.90
37158;DHT22;23050;51.776;22.638;2024-03-17T05:35:54;6.10;99.90
37158;DHT22;23050;51.776;22.638;2024-03-17T05:38:23;6.80;98.10
37158;DHT22;23050;51.776;22.638;2024-03-17T05:40:56;7.50;84.20
37158;DHT22;23050;51.776;22.638;2024-03-17T05:43:23;8.30;30.70
37158;DHT22;23050;51.776;22.638;2024-03-17T05:45:57;8.70;1.00
37158;DHT22;23050;51.776;22.638;2024-03-17T05:48:23;9.00;1.00
37158;DHT22;23050;51.776;22.638;2024-03-17T05:50:50;9.10;1.00
37158;DHT22;23050;51.776;22.638;2024-03-17T05:53:19;9.40;1.00
37158;DHT22;23050;51.776;22.638;2024-03-17T05:55:46;9.60;1.00
37158;DHT22;23050;51.776;22.638;2024-03-17T05:58:11;9.50;1.00
37158;DHT22;23050;51.776;22.638;2024-03-17T06:00:38;9.70;1.00
37158;DHT22;23050;51.776;22.638;2024-03-17T06:03:05;9.80;1.00
37158;DHT22;23050;51.776;22.638;2024-03-17T06:05:35;9.20;1.00
37158;DHT22;23050;51.776;22.638;2024-03-17T06:08:02;9.50;1.00
37158;DHT22;23050;51.776;22.638;2024-03-17T06:10:32;9.70;1.00
37158;DHT22;23050;51.776;22.638;2024-03-17T06:12:58;10.50;1.00
37158;DHT22;23050;51.776;22.638;2024-03-17T06:15:25;10.80;1.00
37158;DHT22;23050;51.776;22.638;2024-03-17T06:17:52;10.40;1.00
37158;DHT22;23050;51.776;22.638;2024-03-17T06:20:19;10.30;1.00
37158;DHT22;23050;51.776;22.638;2024-03-17T06:22:45;10.30;1.00
37158;DHT22;23050;51.776;22.638;2024-03-17T06:25:11;9.70;1.00
37158;DHT22;23050;51.776;22.638;2024-03-17T06:27:37;9.80;1.00
37158;DHT22;23050;51.776;22.638;2024-03-17T06:30:03;9.60;1.00
37158;DHT22;23050;51.776;22.638;2024-03-17T06:32:35;9.40;1.00
37158;DHT22;23050;51.776;22.638;2024-03-17T06:35:04;10.00;1.00
37158;DHT22;23050;51.776;22.638;2024-03-17T06:37:30;10.30;1.00
37158;DHT22;23050;51.776;22.638;2024-03-17T06:39:56;10.50;1.00
37158;DHT22;23050;51.776;22.638;2024-03-17T06:42:21;10.80;1.00
37158;DHT22;23050;51.776;22.638;2024-03-17T06:44:47;11.70;1.00
37158;DHT22;23050;51.776;22.638;2024-03-17T06:47:12;11.60;99.90
37158;DHT22;23050;51.776;22.638;2024-03-17T06:49:38;11.80;99.90
37158;DHT22;23050;51.776;22.638;2024-03-17T06:52:04;11.70;99.90
37158;DHT22;23050;51.776;22.638;2024-03-17T06:54:30;11.90;99.90
37158;DHT22;23050;51.776;22.638;2024-03-17T06:56:57;11.20;99.90
37158;DHT22;23050;51.776;22.638;2024-03-17T06:59:23;10.30;99.90
37158;DHT22;23050;51.776;22.638;2024-03-17T07:01:49;9.60;1.00
37158;DHT22;23050;51.776;22.638;2024-03-17T07:04:15;8.90;1.00
37158;DHT22;23050;51.776;22.638;2024-03-17T07:06:42;8.30;1.00
37158;DHT22;23050;51.776;22.638;2024-03-17T07:09:07;7.90;1.00
37158;DHT22;23050;51.776;22.638;2024-03-17T07:11:34;7.50;1.00
37158;DHT22;23050;51.776;22.638;2024-03-17T07:14:00;7.80;1.00
37158;DHT22;23050;51.776;22.638;2024-03-17T07:16:25;8.50;1.00
37158;DHT22;23050;51.776;22.638;2024-03-17T07:18:52;8.60;1.00
37158;DHT22;23050;51.776;22.638;2024-03-17T07:21:21;8.60;1.00
37158;DHT22;23050;51.776;22.638;2024-03-17T07:23:47;8.50;1.00
37158;DHT22;23050;51.776;22.638;2024-03-17T07:26:13;8.30;1.00
37158;DHT22;23050;51.776;22.638;2024-03-17T07:28:40;8.20;1.00
37158;DHT22;23050;51.776;22.638;2024-03-17T07:31:08;8.30;1.00
37158;DHT22;23050;51.776;22.638;2024-03-17T07:33:34;8.10;1.00
37158;DHT22;23050;51.776;22.638;2024-03-17T07:36:00;8.00;1.00
37158;DHT22;23050;51.776;22.638;2024-03-17T07:38:27;7.80;1.00
37158;DHT22;23050;51.776;22.638;2024-03-17T07:41:00;7.70;1.00
37158;DHT22;23050;51.776;22.638;2024-03-17T07:43:26;7.20;1.00
37158;DHT22;23050;51.776;22.638;2024-03-17T07:46:03;6.90;1.00
37158;DHT22;23050;51.776;22.638;2024-03-17T07:48:31;6.70;10.80
37158;DHT22;23050;51.776;22.638;2024-03-17T07:51:05;6.50;16.50
37158;DHT22;23050;51.776;22.638;2024-03-17T07:53:32;6.50;1.00
37158;DHT22;23050;51.776;22.638;2024-03-17T07:58:24;7.90;1.00
37158;DHT22;23050;51.776;22.638;2024-03-17T08:00:52;8.10;1.00
37158;DHT22;23050;51.776;22.638;2024-03-17T08:03:18;8.10;1.00
37158;DHT22;23050;51.776;22.638;2024-03-17T08:05:48;8.10;1.00
37158;DHT22;23050;51.776;22.638;2024-03-17T08:08:15;7.70;1.00
37158;DHT22;23050;51.776;22.638;2024-03-17T08:10:41;7.50;1.00
37158;DHT22;23050;51.776;22.638;2024-03-17T08:13:07;7.20;1.00
37158;DHT22;23050;51.776;22.638;2024-03-17T08:15:34;7.10;1.00
37158;DHT22;23050;51.776;22.638;2024-03-17T08:18:00;7.10;1.00
37158;DHT22;23050;51.776;22.638;2024-03-17T08:20:26;6.80;1.00
37158;DHT22;23050;51.776;22.638;2024-03-17T08:22:51;6.90;1.00
37158;DHT22;23050;51.776;22.638;2024-03-17T08:25:17;7.50;1.00
37158;DHT22;23050;51.776;22.638;2024-03-17T08:27:43;7.90;1.00
37158;DHT22;23050;51.776;22.638;2024-03-17T08:30:09;7.80;1.00
37158;DHT22;23050;51.776;22.638;2024-03-17T08:32:39;8.00;1.00
37158;DHT22;23050;51.776;22.638;2024-03-17T08:35:05;8.10;1.00
37158;DHT22;23050;51.776;22.638;2024-03-17T08:37:32;7.70;1.00
37158;DHT22;23050;51.776;22.638;2024-03-17T08:39:58;7.50;1.00
37158;DHT22;23050;51.776;22.638;2024-03-17T08:42:23;7.30;1.00
37158;DHT22;23050;51.776;22.638;2024-03-17T08:44:49;7.10;1.00
37158;DHT22;23050;51.776;22.638;2024-03-17T08:47:15;7.00;1.00
37158;DHT22;23050;51.776;22.638;2024-03-17T08:49:41;6.80;1.00
37158;DHT22;23050;51.776;22.638;2024-03-17T08:52:06;6.80;1.00
37158;DHT22;23050;51.776;22.638;2024-03-17T08:54:32;6.90;1.00
37158;DHT22;23050;51.776;22.638;2024-03-17T08:56:58;7.30;1.00
37158;DHT22;23050;51.776;22.638;2024-03-17T08:59:24;7.70;1.00
37158;DHT22;23050;51.776;22.638;2024-03-17T09:01:49;8.40;1.00
37158;DHT22;23050;51.776;22.638;2024-03-17T09:04:15;8.80;1.00
37158;DHT22;23050;51.776;22.638;2024-03-17T09:06:40;8.50;1.00
37158;DHT22;23050;51.776;22.638;2024-03-17T09:09:07;8.20;1.00
37158;DHT22;23050;51.776;22.638;2024-03-17T09:11:33;8.10;1.00
37158;DHT22;23050;51.776;22.638;2024-03-17T09:13:59;8.10;1.00
37158;DHT22;23050;51.776;22.638;2024-03-17T09:16:24;8.20;1.00
37158;DHT22;23050;51.776;22.638;2024-03-17T09:18:51;7.80;1.00
37158;DHT22;23050;51.776;22.638;2024-03-17T09:21:17;7.70;1.00
37158;DHT22;23050;51.776;22.638;2024-03-17T09:23:43;7.60;1.00
37158;DHT22;23050;51.776;22.638;2024-03-17T09:26:10;7.60;1.00
37158;DHT22;23050;51.776;22.638;2024-03-17T09:28:37;7.40;1.00
37158;DHT22;23050;51.776;22.638;2024-03-17T09:31:03;7.30;1.00
37158;DHT22;23050;51.776;22.638;2024-03-17T09:33:33;7.40;1.00
37158;DHT22;23050;51.776;22.638;2024-03-17T09:36:05;7.30;1.00
37158;DHT22;23050;51.776;22.638;2024-03-17T09:38:36;7.20;1.00
37158;DHT22;23050;51.776;22.638;2024-03-17T09:41:02;7.20;1.00
37158;DHT22;23050;51.776;22.638;2024-03-17T09:43:30;7.10;1.00
37158;DHT22;23050;51.776;22.638;2024-03-17T09:45:57;6.90;1.00
37158;DHT22;23050;51.776;22.638;2024-03-17T09:48:27;6.80;1.00
37158;DHT22;23050;51.776;22.638;2024-03-17T09:50:55;6.80;1.00
37158;DHT22;23050;51.776;22.638;2024-03-17T09:53:34;6.70;1.00
37158;DHT22;23050;51.776;22.638;2024-03-17T09:56:16;6.70;1.00
37158;DHT22;23050;51.776;22.638;2024-03-17T09:58:45;6.80;1.00
37158;DHT22;23050;51.776;22.638;2024-03-17T10:01:11;6.90;1.00
37158;DHT22;23050;51.776;22.638;2024-03-17T10:03:49;6.90;1.00
37158;DHT22;23050;51.776;22.638;2024-03-17T10:06:21;7.00;1.00
37158;DHT22;23050;51.776;22.638;2024-03-17T10:08:51;6.90;1.00
37158;DHT22;23050;51.776;22.638;2024-03-17T10:11:20;6.90;1.00
37158;DHT22;23050;51.776;22.638;2024-03-17T10:13:59;6.90;1.00
37158;DHT22;23050;51.776;22.638;2024-03-17T10:16:29;6.90;1.00
37158;DHT22;23050;51.776;22.638;2024-03-17T10:19:24;6.80;1.00
37158;DHT22;23050;51.776;22.638;2024-03-17T10:21:58;6.80;1.00
37158;DHT22;23050;51.776;22.638;2024-03-17T10:24:28;6.70;1.00
37158;DHT22;23050;51.776;22.638;2024-03-17T10:26:55;6.70;1.00
37158;DHT22;23050;51.776;22.638;2024-03-17T10:29:29;6.60;1.00
37158;DHT22;23050;51.776;22.638;2024-03-17T10:32:01;6.60;1.00
37158;DHT22;23050;51.776;22.638;2024-03-17T10:34:28;6.70;1.00
37158;DHT22;23050;51.776;22.638;2024-03-17T10:37:19;6.80;1.00
37158;DHT22;23050;51.776;22.638;2024-03-17T10:39:50;6.90;1.00
37158;DHT22;23050;51.776;22.638;2024-03-17T10:42:24;7.00;1.00
37158;DHT22;23050;51.776;22.638;2024-03-17T10:44:51;7.10;1.00
37158;DHT22;23050;51.776;22.638;2024-03-17T10:47:24;6.90;1.00
37158;DHT22;23050;51.776;22.638;2024-03-17T10:49:55;6.90;1.00
37158;DHT22;23050;51.776;22.638;2024-03-17T10:52:22;7.10;1.00
37158;DHT22;23050;51.776;22.638;2024-03-17T10:54:52;7.00;1.00
37158;DHT22;23050;51.776;22.638;2024-03-17T10:59:49;6.90;1.00
37158;DHT22;23050;51.776;22.638;2024-03-17T11:02:23;6.90;1.00
37158;DHT22;23050;51.776;22.638;2024-03-17T11:04:57;6.80;1.00
37158;DHT22;23050;51.776;22.638;2024-03-17T11:07:23;6.70;1.00
37158;DHT22;23050;51.776;22.638;2024-03-17T11:09:52;6.70;1.00
37158;DHT22;23050;51.776;22.638;2024-03-17T11:17:48;6.60;1.00
37158;DHT22;23050;51.776;22.638;2024-03-17T11:20:20;6.60;1.00
37158;DHT22;23050;51.776;22.638;2024-03-17T11:22:49;6.60;1.00
37158;DHT22;23050;51.776;22.638;2024-03-17T11:28:04;6.50;1.00
37158;DHT22;23050;51.776;22.638;2024-03-17T11:46:45;7.00;1.00
37158;DHT22;23050;51.776;22.638;2024-03-17T11:52:00;6.80;1.00
37158;DHT22;23050;51.776;22.638;2024-03-17T11:54:27;6.70;1.00
37158;DHT22;23050;51.776;22.638;2024-03-17T11:57:01;6.70;1.00
37158;DHT22;23050;51.776;22.638;2024-03-17T11:59:27;6.60;1.00
37158;DHT22;23050;51.776;22.638;2024-03-17T12:01:53;6.50;1.00
37158;DHT22;23050;51.776;22.638;2024-03-17T12:04:20;6.40;1.00
37158;DHT22;23050;51.776;22.638;2024-03-17T12:06:51;6.40;1.00
37158;DHT22;23050;51.776;22.638;2024-03-17T12:09:22;6.40;10.00
37158;DHT22;23050;51.776;22.638;2024-03-17T12:11:48;6.30;22.70
37158;DHT22;23050;51.776;22.638;2024-03-17T12:14:21;6.30;29.70
37158;DHT22;23050;51.776;22.638;2024-03-17T12:16:51;6.20;32.50
37158;DHT22;23050;51.776;22.638;2024-03-17T12:19:17;6.20;36.90
37158;DHT22;23050;51.776;22.638;2024-03-17T12:21:45;6.20;40.70
37158;DHT22;23050;51.776;22.638;2024-03-17T12:24:16;6.20;47.10
37158;DHT22;23050;51.776;22.638;2024-03-17T12:26:43;6.20;52.10
37158;DHT22;23050;51.776;22.638;2024-03-17T12:29:25;6.10;69.80
37158;DHT22;23050;51.776;22.638;2024-03-17T12:31:53;6.00;88.90
37158;DHT22;23050;51.776;22.638;2024-03-17T12:34:20;5.90;92.30
37158;DHT22;23050;51.776;22.638;2024-03-17T12:36:46;5.80;88.50
37158;DHT22;23050;51.776;22.638;2024-03-17T12:39:30;5.70;59.00
37158;DHT22;23050;51.776;22.638;2024-03-17T12:44:35;5.60;44.60
37158;DHT22;23050;51.776;22.638;2024-03-17T12:47:03;5.50;37.60
37158;DHT22;23050;51.776;22.638;2024-03-17T12:49:30;5.50;35.20
37158;DHT22;23050;51.776;22.638;2024-03-17T12:52:02;5.50;38.00
37158;DHT22;23050;51.776;22.638;2024-03-17T12:54:28;5.50;28.10
37158;DHT22;23050;51.776;22.638;2024-03-17T12:57:08;5.50;32.10
37158;DHT22;23050;51.776;22.638;2024-03-17T12:59:52;5.60;29.90
37158;DHT22;23050;51.776;22.638;2024-03-17T13:02:43;5.60;32.40
37158;DHT22;23050;51.776;22.638;2024-03-17T13:05:20;5.60;26.20
37158;DHT22;23050;51.776;22.638;2024-03-17T13:07:50;5.70;30.50
37158;DHT22;23050;51.776;22.638;2024-03-17T13:10:17;5.80;24.40
37158;DHT22;23050;51.776;22.638;2024-03-17T13:12:44;5.90;22.00
37158;DHT22;23050;51.776;22.638;2024-03-17T13:15:15;6.00;12.00
37158;DHT22;23050;51.776;22.638;2024-03-17T13:17:44;6.00;8.90
37158;DHT22;23050;51.776;22.638;2024-03-17T13:20:13;6.10;11.10
37158;DHT22;23050;51.776;22.638;2024-03-17T13:22:41;6.30;9.40
37158;DHT22;23050;51.776;22.638;2024-03-17T13:25:33;6.30;3.60
37158;DHT22;23050;51.776;22.638;2024-03-17T13:28:05;6.30;3.60
37158;DHT22;23050;51.776;22.638;2024-03-17T13:30:32;6.30;6.20
37158;DHT22;23050;51.776;22.638;2024-03-17T13:32:59;6.30;9.00
37158;DHT22;23050;51.776;22.638;2024-03-17T13:35:26;6.30;9.70
37158;DHT22;23050;51.776;22.638;2024-03-17T13:37:53;6.30;11.60
37158;DHT22;23050;51.776;22.638;2024-03-17T13:40:25;6.30;12.60
37158;DHT22;23050;51.776;22.638;2024-03-17T13:42:53;6.30;14.00
37158;DHT22;23050;51.776;22.638;2024-03-17T13:45:22;6.20;8.80
37158;DHT22;23050;51.776;22.638;2024-03-17T13:48:04;6.20;10.90
37158;DHT22;23050;51.776;22.638;2024-03-17T13:50:30;6.20;7.60
37158;DHT22;23050;51.776;22.638;2024-03-17T13:52:56;6.20;5.90
37158;DHT22;23050;51.776;22.638;2024-03-17T13:55:23;6.30;11.90
37158;DHT22;23050;51.776;22.638;2024-03-17T13:57:57;6.20;14.40
37158;DHT22;23050;51.776;22.638;2024-03-17T14:00:29;6.20;14.70
37158;DHT22;23050;51.776;22.638;2024-03-17T14:02:55;6.20;17.80
37158;DHT22;23050;51.776;22.638;2024-03-17T14:05:25;6.20;24.20
37158;DHT22;23050;51.776;22.638;2024-03-17T14:07:55;6.20;20.80
37158;DHT22;23050;51.776;22.638;2024-03-17T14:10:21;6.10;25.10
37158;DHT22;23050;51.776;22.638;2024-03-17T14:12:47;6.10;33.00
37158;DHT22;23050;51.776;22.638;2024-03-17T14:15:14;5.90;41.60
37158;DHT22;23050;51.776;22.638;2024-03-17T14:17:45;5.80;52.20
37158;DHT22;23050;51.776;22.638;2024-03-17T14:20:11;5.70;65.70
37158;DHT22;23050;51.776;22.638;2024-03-17T14:22:42;5.60;91.60
37158;DHT22;23050;51.776;22.638;2024-03-17T14:25:10;5.50;99.50
37158;DHT22;23050;51.776;22.638;2024-03-17T14:27:38;5.40;99.90
37158;DHT22;23050;51.776;22.638;2024-03-17T14:30:04;5.20;99.90
37158;DHT22;23050;51.776;22.638;2024-03-17T14:32:31;5.10;99.90
37158;DHT22;23050;51.776;22.638;2024-03-17T14:34:57;5.00;99.90
37158;DHT22;23050;51.776;22.638;2024-03-17T14:37:22;4.90;99.90
37158;DHT22;23050;51.776;22.638;2024-03-17T14:39:49;4.90;99.90
37158;DHT22;23050;51.776;22.638;2024-03-17T14:42:16;4.90;99.90
37158;DHT22;23050;51.776;22.638;2024-03-17T14:44:42;4.80;99.90
37158;DHT22;23050;51.776;22.638;2024-03-17T14:47:08;4.80;99.90
37158;DHT22;23050;51.776;22.638;2024-03-17T14:49:35;4.70;99.90
37158;DHT22;23050;51.776;22.638;2024-03-17T14:52:00;4.70;99.90
37158;DHT22;23050;51.776;22.638;2024-03-17T14:54:27;4.70;99.90
37158;DHT22;23050;51.776;22.638;2024-03-17T14:56:53;4.70;99.90
37158;DHT22;23050;51.776;22.638;2024-03-17T14:59:21;4.70;99.90
37158;DHT22;23050;51.776;22.638;2024-03-17T15:01:47;4.70;99.90
37158;DHT22;23050;51.776;22.638;2024-03-17T15:04:15;4.70;99.90
37158;DHT22;23050;51.776;22.638;2024-03-17T15:06:43;4.80;99.90
37158;DHT22;23050;51.776;22.638;2024-03-17T15:09:09;5.00;99.90
37158;DHT22;23050;51.776;22.638;2024-03-17T15:11:35;5.40;99.90
37158;DHT22;23050;51.776;22.638;2024-03-17T15:14:01;6.00;99.90
37158;DHT22;23050;51.776;22.638;2024-03-17T15:16:26;6.10;99.90
37158;DHT22;23050;51.776;22.638;2024-03-17T15:18:52;6.10;99.90
37158;DHT22;23050;51.776;22.638;2024-03-17T15:21:18;5.90;99.90
37158;DHT22;23050;51.776;22.638;2024-03-17T15:23:45;5.80;99.90
37158;DHT22;23050;51.776;22.638;2024-03-17T15:26:10;5.70;99.90
37158;DHT22;23050;51.776;22.638;2024-03-17T15:28:41;5.60;99.90
37158;DHT22;23050;51.776;22.638;2024-03-17T15:31:08;5.50;99.90
37158;DHT22;23050;51.776;22.638;2024-03-17T15:33:34;5.40;99.90
37158;DHT22;23050;51.776;22.638;2024-03-17T15:36:04;5.40;99.90
37158;DHT22;23050;51.776;22.638;2024-03-17T15:38:31;5.30;99.90
37158;DHT22;23050;51.776;22.638;2024-03-17T15:41:02;5.20;99.90
37158;DHT22;23050;51.776;22.638;2024-03-17T15:43:27;5.20;99.90
37158;DHT22;23050;51.776;22.638;2024-03-17T15:45:54;5.10;99.90
37158;DHT22;23050;51.776;22.638;2024-03-17T15:48:19;5.00;99.90
37158;DHT22;23050;51.776;22.638;2024-03-17T15:50:53;5.00;99.90
37158;DHT22;23050;51.776;22.638;2024-03-17T15:53:20;5.00;99.90
37158;DHT22;23050;51.776;22.638;2024-03-17T15:58:22;5.00;99.90
37158;DHT22;23050;51.776;22.638;2024-03-17T16:00:48;5.00;99.90
37158;DHT22;23050;51.776;22.638;2024-03-17T16:03:14;5.00;99.90
37158;DHT22;23050;51.776;22.638;2024-03-17T16:05:47;4.90;99.90
37158;DHT22;23050;51.776;22.638;2024-03-17T16:08:18;4.90;99.90
37158;DHT22;23050;51.776;22.638;2024-03-17T16:10:50;5.00;99.90
37158;DHT22;23050;51.776;22.638;2024-03-17T16:13:27;4.90;99.90
37158;DHT22;23050;51.776;22.638;2024-03-17T16:15:59;4.80;99.90